sensor_id;sensor_type;location;lat;lon;timestamp;pressure;altitude;pressure_sealevel;temperature;humidity
3254;BME280;1639;42.804;23.342;2023-01-28T00:00:25;73795.50;;;-148.52;100.00
3254;BME280;1639;42.804;23.342;2023-01-28T00:02:51;73789.31;;;-148.52;100.00
3254;BME280;1639;42.804;23.342;2023-01-28T00:05:16;73801.72;;;-148.52;100.00
3254;BME280;1639;42.804;23.342;2023-01-28T00:07:41;73803.78;;;-148.52;100.00
3254;BME280;1639;42.804;23.342;2023-01-28T00:10:07;73807.94;;;-148.52;100.00
3254;BME280;1639;42.804;23.342;2023-01-28T00:12:33;73805.84;;;-148.52;100.00
3254;BME280;1639;42.804;23.342;2023-01-28T00:14:58;73803.78;;;-148.52;100.00
3254;BME280;1639;42.804;23.342;2023-01-28T00:17:23;73818.25;;;-148.52;100.00
3254;BME280;1639;42.804;23.342;2023-01-28T00:19:49;73820.34;;;-148.52;100.00
3254;BME280;1639;42.804;23.342;2023-01-28T00:22:14;73820.34;;;-148.52;100.00
3254;BME280;1639;42.804;23.342;2023-01-28T00:24:40;73816.19;;;-148.52;100.00
3254;BME280;1639;42.804;23.342;2023-01-28T00:27:05;73826.53;;;-148.52;100.00
3254;BME280;1639;42.804;23.342;2023-01-28T00:29:31;73828.59;;;-148.52;100.00
3254;BME280;1639;42.804;23.342;2023-01-28T00:31:56;73828.59;;;-148.52;100.00
3254;BME280;1639;42.804;23.342;2023-01-28T00:34:21;73832.75;;;-148.52;100.00
3254;BME280;1639;42.804;23.342;2023-01-28T00:36:47;73832.75;;;-148.52;100.00
3254;BME280;1639;42.804;23.342;2023-01-28T00:39:22;73843.09;;;-148.52;100.00
3254;BME280;1639;42.804;23.342;2023-01-28T00:41:48;73843.09;;;-148.52;100.00
3254;BME280;1639;42.804;23.342;2023-01-28T00:44:13;73847.22;;;-148.52;100.00
3254;BME280;1639;42.804;23.342;2023-01-28T00:46:39;73843.09;;;-148.52;100.00
3254;BME280;1639;42.804;23.342;2023-01-28T00:49:06;73834.81;;;-148.52;100.00
3254;BME280;1639;42.804;23.342;2023-01-28T00:51:32;73841.03;;;-148.52;100.00
3254;BME280;1639;42.804;23.342;2023-01-28T00:53:57;73832.75;;;-148.52;100.00
3254;BME280;1639;42.804;23.342;2023-01-28T00:56:23;73841.03;;;-148.52;100.00
3254;BME280;1639;42.804;23.342;2023-01-28T00:58:48;73843.09;;;-148.52;100.00
3254;BME280;1639;42.804;23.342;2023-01-28T01:03:39;73832.75;;;-148.52;100.00
3254;BME280;1639;42.804;23.342;2023-01-28T01:06:06;73841.03;;;-148.52;100.00
3254;BME280;1639;42.804;23.342;2023-01-28T01:08:32;73836.88;;;-148.52;100.00
3254;BME280;1639;42.804;23.342;2023-01-28T01:11:05;73832.75;;;-148.52;100.00
3254;BME280;1639;42.804;23.342;2023-01-28T01:13:32;73836.88;;;-148.52;100.00
3254;BME280;1639;42.804;23.342;2023-01-28T01:16:03;73834.81;;;-148.52;100.00
3254;BME280;1639;42.804;23.342;2023-01-28T01:18:28;73832.75;;;-148.52;100.00
3254;BME280;1639;42.804;23.342;2023-01-28T01:20:54;73832.75;;;-148.52;100.00
3254;BME280;1639;42.804;23.342;2023-01-28T01:23:25;73834.81;;;-148.52;100.00
3254;BME280;1639;42.804;23.342;2023-01-28T01:25:50;73828.59;;;-148.52;100.00
3254;BME280;1639;42.804;23.342;2023-01-28T01:28:16;73824.47;;;-148.52;100.00
3254;BME280;1639;42.804;23.342;2023-01-28T01:30:41;73828.59;;;-148.52;100.00
3254;BME280;1639;42.804;23.342;2023-01-28T01:33:08;73820.34;;;-148.52;100.00
3254;BME280;1639;42.804;23.342;2023-01-28T01:35:33;73828.59;;;-148.52;100.00
3254;BME280;1639;42.804;23.342;2023-01-28T01:37:59;73832.75;;;-148.52;100.00
3254;BME280;1639;42.804;23.342;2023-01-28T01:40:24;73830.69;;;-148.52;100.00
3254;BME280;1639;42.804;23.342;2023-01-28T01:42:50;73834.81;;;-148.52;100.00
3254;BME280;1639;42.804;23.342;2023-01-28T01:45:15;73832.75;;;-148.52;100.00
3254;BME280;1639;42.804;23.342;2023-01-28T01:47:59;73838.94;;;-148.52;100.00
3254;BME280;1639;42.804;23.342;2023-01-28T01:50:38;73826.53;;;-148.52;100.00
3254;BME280;1639;42.804;23.342;2023-01-28T01:53:25;73836.88;;;-148.52;100.00
3254;BME280;1639;42.804;23.342;2023-01-28T01:55:54;73828.59;;;-148.52;100.00
3254;BME280;1639;42.804;23.342;2023-01-28T01:58:29;73828.59;;;-148.52;100.00
3254;BME280;1639;42.804;23.342;2023-01-28T02:00:55;73824.47;;;-148.52;100.00
3254;BME280;1639;42.804;23.342;2023-01-28T02:03:28;73828.59;;;-148.52;100.00
3254;BME280;1639;42.804;23.342;2023-01-28T02:05:57;73824.47;;;-148.52;100.00
3254;BME280;1639;42.804;23.342;2023-01-28T02:08:22;73824.47;;;-148.52;100.00
3254;BME280;1639;42.804;23.342;2023-01-28T02:10:54;73832.75;;;-148.52;100.00
3254;BME280;1639;42.804;23.342;2023-01-28T02:13:24;73843.09;;;-148.52;100.00
3254;BME280;1639;42.804;23.342;2023-01-28T02:15:51;73843.09;;;-148.52;100.00
3254;BME280;1639;42.804;23.342;2023-01-28T02:18:17;73841.03;;;-148.52;100.00
3254;BME280;1639;42.804;23.342;2023-01-28T02:32:09;73859.63;;;-148.52;100.00
3254;BME280;1639;42.804;23.342;2023-01-28T02:34:42;73865.84;;;-148.52;100.00
3254;BME280;1639;42.804;23.342;2023-01-28T02:37:33;73859.63;;;-148.52;100.00
3254;BME280;1639;42.804;23.342;2023-01-28T02:40:11;73859.63;;;-148.52;100.00
3254;BME280;1639;42.804;23.342;2023-01-28T02:42:39;73865.84;;;-148.52;100.00
3254;BME280;1639;42.804;23.342;2023-01-28T02:45:16;73869.97;;;-148.52;100.00
3254;BME280;1639;42.804;23.342;2023-01-28T02:47:43;73859.63;;;-148.52;100.00
3254;BME280;1639;42.804;23.342;2023-01-28T02:50:31;73861.72;;;-148.52;100.00
3254;BME280;1639;42.804;23.342;2023-01-28T02:53:19;73869.97;;;-148.52;100.00
3254;BME280;1639;42.804;23.342;2023-01-28T02:58:43;73876.19;;;-148.52;100.00
3254;BME280;1639;42.804;23.342;2023-01-28T03:01:29;73865.84;;;-148.52;100.00
3254;BME280;1639;42.804;23.342;2023-01-28T03:04:22;73869.97;;;-148.52;100.00
3254;BME280;1639;42.804;23.342;2023-01-28T03:06:54;73865.84;;;-148.52;100.00
3254;BME280;1639;42.804;23.342;2023-01-28T03:09:22;73874.13;;;-148.52;100.00
3254;BME280;1639;42.804;23.342;2023-01-28T03:12:07;73867.91;;;-148.52;100.00
3254;BME280;1639;42.804;23.342;2023-01-28T03:15:16;73861.72;;;-148.52;100.00
3254;BME280;1639;42.804;23.342;2023-01-28T03:18:08;73861.72;;;-148.52;100.00
3254;BME280;1639;42.804;23.342;2023-01-28T03:21:14;73867.91;;;-148.52;100.00
3254;BME280;1639;42.804;23.342;2023-01-28T03:27:02;73874.13;;;-148.52;100.00
3254;BME280;1639;42.804;23.342;2023-01-28T03:29:49;73882.41;;;-148.52;100.00
3254;BME280;1639;42.804;23.342;2023-01-28T03:32:35;73886.53;;;-148.52;100.00
3254;BME280;1639;42.804;23.342;2023-01-28T03:35:21;73882.41;;;-148.52;100.00
3254;BME280;1639;42.804;23.342;2023-01-28T03:38:08;73890.66;;;-148.52;100.00
3254;BME280;1639;42.804;23.342;2023-01-28T03:40:58;73888.59;;;-148.52;100.00
3254;BME280;1639;42.804;23.342;2023-01-28T03:43:24;73882.41;;;-148.52;100.00
3254;BME280;1639;42.804;23.342;2023-01-28T03:45:50;73878.25;;;-148.52;100.00
3254;BME280;1639;42.804;23.342;2023-01-28T03:48:17;73892.75;;;-148.52;100.00
3254;BME280;1639;42.804;23.342;2023-01-28T03:50:43;73894.81;;;-148.52;100.00
3254;BME280;1639;42.804;23.342;2023-01-28T03:53:08;73901.00;;;-148.52;100.00
3254;BME280;1639;42.804;23.342;2023-01-28T03:55:37;73903.09;;;-148.52;100.00
3254;BME280;1639;42.804;23.342;2023-01-28T03:58:03;73894.81;;;-148.52;100.00
3254;BME280;1639;42.804;23.342;2023-01-28T04:00:30;73892.75;;;-148.52;100.00
3254;BME280;1639;42.804;23.342;2023-01-28T04:02:57;73903.09;;;-148.52;100.00
3254;BME280;1639;42.804;23.342;2023-01-28T04:05:22;73909.28;;;-148.52;100.00
3254;BME280;1639;42.804;23.342;2023-01-28T04:07:48;73901.00;;;-148.52;100.00
3254;BME280;1639;42.804;23.342;2023-01-28T04:10:16;73921.69;;;-148.52;100.00
3254;BME280;1639;42.804;23.342;2023-01-28T04:12:41;73925.84;;;-148.52;100.00
3254;BME280;1639;42.804;23.342;2023-01-28T04:15:08;73927.91;;;-148.52;100.00
3254;BME280;1639;42.804;23.342;2023-01-28T04:17:43;73919.63;;;-148.52;100.00
3254;BME280;1639;42.804;23.342;2023-01-28T04:20:09;73923.78;;;-148.52;100.00
3254;BME280;1639;42.804;23.342;2023-01-28T04:22:35;73915.50;;;-148.52;100.00
3254;BME280;1639;42.804;23.342;2023-01-28T04:25:00;73907.22;;;-148.52;100.00
3254;BME280;1639;42.804;23.342;2023-01-28T04:27:25;73911.34;;;-148.52;100.00
3254;BME280;1639;42.804;23.342;2023-01-28T04:29:51;73917.56;;;-148.52;100.00
3254;BME280;1639;42.804;23.342;2023-01-28T04:32:16;73923.78;;;-148.52;100.00
3254;BME280;1639;42.804;23.342;2023-01-28T04:34:41;73923.78;;;-148.52;100.00
3254;BME280;1639;42.804;23.342;2023-01-28T04:37:07;73932.03;;;-148.52;100.00
3254;BME280;1639;42.804;23.342;2023-01-28T04:39:33;73938.25;;;-148.52;100.00
3254;BME280;1639;42.804;23.342;2023-01-28T04:41:58;73940.31;;;-148.52;100.00
3254;BME280;1639;42.804;23.342;2023-01-28T04:44:24;73944.47;;;-148.52;100.00
3254;BME280;1639;42.804;23.342;2023-01-28T04:46:49;73952.72;;;-148.52;100.00
3254;BME280;1639;42.804;23.342;2023-01-28T04:49:14;73961.00;;;-148.52;100.00
3254;BME280;1639;42.804;23.342;2023-01-28T04:51:40;73971.34;;;-148.52;100.00
3254;BME280;1639;42.804;23.342;2023-01-28T04:54:06;73969.28;;;-148.52;100.00
3254;BME280;1639;42.804;23.342;2023-01-28T04:56:31;73975.47;;;-148.52;100.00
3254;BME280;1639;42.804;23.342;2023-01-28T04:58:56;73989.97;;;-148.52;100.00
3254;BME280;1639;42.804;23.342;2023-01-28T05:01:22;73992.03;;;-148.52;100.00
3254;BME280;1639;42.804;23.342;2023-01-28T05:03:48;73987.91;;;-148.52;100.00
3254;BME280;1639;42.804;23.342;2023-01-28T05:06:14;73985.81;;;-148.52;100.00
3254;BME280;1639;42.804;23.342;2023-01-28T05:08:39;73996.16;;;-148.52;100.00
3254;BME280;1639;42.804;23.342;2023-01-28T05:11:04;73983.75;;;-148.52;100.00
3254;BME280;1639;42.804;23.342;2023-01-28T05:13:30;73985.81;;;-148.52;100.00
3254;BME280;1639;42.804;23.342;2023-01-28T05:15:55;73998.25;;;-148.52;100.00
3254;BME280;1639;42.804;23.342;2023-01-28T05:18:21;74006.53;;;-148.52;100.00
3254;BME280;1639;42.804;23.342;2023-01-28T05:20:46;74008.59;;;-148.52;100.00
3254;BME280;1639;42.804;23.342;2023-01-28T05:23:12;74006.53;;;-148.52;100.00
3254;BME280;1639;42.804;23.342;2023-01-28T05:25:37;74018.94;;;-148.52;100.00
3254;BME280;1639;42.804;23.342;2023-01-28T05:28:02;74027.22;;;-148.52;100.00
3254;BME280;1639;42.804;23.342;2023-01-28T05:30:28;74031.34;;;-148.52;100.00
3254;BME280;1639;42.804;23.342;2023-01-28T05:32:54;74031.34;;;-148.52;100.00
3254;BME280;1639;42.804;23.342;2023-01-28T05:35:20;74039.63;;;-148.52;100.00
3254;BME280;1639;42.804;23.342;2023-01-28T05:37:45;74043.75;;;-148.52;100.00
3254;BME280;1639;42.804;23.342;2023-01-28T05:40:11;74047.88;;;-148.52;100.00
3254;BME280;1639;42.804;23.342;2023-01-28T05:42:37;74045.81;;;-148.52;100.00
3254;BME280;1639;42.804;23.342;2023-01-28T05:45:02;74049.97;;;-148.52;100.00
3254;BME280;1639;42.804;23.342;2023-01-28T05:47:28;74043.75;;;-148.52;100.00
3254;BME280;1639;42.804;23.342;2023-01-28T05:49:53;74052.03;;;-148.52;100.00
3254;BME280;1639;42.804;23.342;2023-01-28T05:52:18;74041.69;;;-148.52;100.00
3254;BME280;1639;42.804;23.342;2023-01-28T05:54:44;74035.47;;;-148.52;100.00
3254;BME280;1639;42.804;23.342;2023-01-28T05:57:09;74037.53;;;-148.52;100.00
3254;BME280;1639;42.804;23.342;2023-01-28T05:59:35;74029.28;;;-148.52;100.00
3254;BME280;1639;42.804;23.342;2023-01-28T06:02:00;74031.34;;;-148.52;100.00
3254;BME280;1639;42.804;23.342;2023-01-28T06:04:25;74029.28;;;-148.52;100.00
3254;BME280;1639;42.804;23.342;2023-01-28T06:06:51;74031.34;;;-148.52;100.00
3254;BME280;1639;42.804;23.342;2023-01-28T06:09:16;74031.34;;;-148.52;100.00
3254;BME280;1639;42.804;23.342;2023-01-28T06:11:42;74033.41;;;-148.52;100.00
3254;BME280;1639;42.804;23.342;2023-01-28T06:14:08;74041.69;;;-148.52;100.00
3254;BME280;1639;42.804;23.342;2023-01-28T06:16:33;74041.69;;;-148.52;100.00
3254;BME280;1639;42.804;23.342;2023-01-28T06:18:59;74049.97;;;-148.52;100.00
3254;BME280;1639;42.804;23.342;2023-01-28T06:21:25;74047.88;;;-148.52;100.00
3254;BME280;1639;42.804;23.342;2023-01-28T06:23:50;74052.03;;;-148.52;100.00
3254;BME280;1639;42.804;23.342;2023-01-28T06:26:15;74058.22;;;-148.52;100.00
3254;BME280;1639;42.804;23.342;2023-01-28T06:28:41;74064.44;;;-148.52;100.00
3254;BME280;1639;42.804;23.342;2023-01-28T06:31:06;74076.84;;;-148.52;100.00
3254;BME280;1639;42.804;23.342;2023-01-28T06:33:32;74068.59;;;-148.52;100.00
3254;BME280;1639;42.804;23.342;2023-01-28T06:35:57;74058.22;;;-148.52;100.00
3254;BME280;1639;42.804;23.342;2023-01-28T06:38:23;74064.44;;;-148.52;100.00
3254;BME280;1639;42.804;23.342;2023-01-28T06:40:52;74060.31;;;-148.52;100.00
3254;BME280;1639;42.804;23.342;2023-01-28T06:43:20;74058.22;;;-148.52;100.00
3254;BME280;1639;42.804;23.342;2023-01-28T06:45:46;74062.38;;;-148.52;100.00
3254;BME280;1639;42.804;23.342;2023-01-28T06:48:11;74062.38;;;-148.52;100.00
3254;BME280;1639;42.804;23.342;2023-01-28T06:50:36;74047.88;;;-148.52;100.00
3254;BME280;1639;42.804;23.342;2023-01-28T06:53:02;74043.75;;;-148.52;100.00
3254;BME280;1639;42.804;23.342;2023-01-28T06:55:27;74054.09;;;-148.52;100.00
3254;BME280;1639;42.804;23.342;2023-01-28T06:57:52;74054.09;;;-148.52;100.00
3254;BME280;1639;42.804;23.342;2023-01-28T07:00:18;74062.38;;;-148.52;100.00
3254;BME280;1639;42.804;23.342;2023-01-28T07:02:44;74062.38;;;-148.52;100.00
3254;BME280;1639;42.804;23.342;2023-01-28T07:05:10;74074.78;;;-148.52;100.00
3254;BME280;1639;42.804;23.342;2023-01-28T07:07:35;74076.84;;;-148.52;100.00
3254;BME280;1639;42.804;23.342;2023-01-28T07:10:02;74070.66;;;-148.52;100.00
3254;BME280;1639;42.804;23.342;2023-01-28T07:12:27;74081.00;;;-148.52;100.00
3254;BME280;1639;42.804;23.342;2023-01-28T07:14:53;74081.00;;;-148.52;100.00
3254;BME280;1639;42.804;23.342;2023-01-28T07:17:18;74081.00;;;-148.52;100.00
3254;BME280;1639;42.804;23.342;2023-01-28T07:19:44;74068.59;;;-148.52;100.00
3254;BME280;1639;42.804;23.342;2023-01-28T07:22:09;74068.59;;;-148.52;100.00
3254;BME280;1639;42.804;23.342;2023-01-28T07:24:34;74064.44;;;-148.52;100.00
3254;BME280;1639;42.804;23.342;2023-01-28T07:27:00;74072.72;;;-148.52;100.00
3254;BME280;1639;42.804;23.342;2023-01-28T07:29:25;74076.84;;;-148.52;100.00
3254;BME280;1639;42.804;23.342;2023-01-28T07:31:51;74081.00;;;-148.52;100.00
3254;BME280;1639;42.804;23.342;2023-01-28T07:34:16;74087.19;;;-148.52;100.00
3254;BME280;1639;42.804;23.342;2023-01-28T07:36:41;74078.94;;;-148.52;100.00
3254;BME280;1639;42.804;23.342;2023-01-28T07:39:07;74089.28;;;-148.52;100.00
3254;BME280;1639;42.804;23.342;2023-01-28T07:41:32;74085.13;;;-148.52;100.00
3254;BME280;1639;42.804;23.342;2023-01-28T07:43:58;74058.22;;;-148.52;100.00
3254;BME280;1639;42.804;23.342;2023-01-28T07:46:23;74054.09;;;-148.52;100.00
3254;BME280;1639;42.804;23.342;2023-01-28T07:48:49;74060.31;;;-148.52;100.00
3254;BME280;1639;42.804;23.342;2023-01-28T07:51:14;74064.44;;;-148.52;100.00
3254;BME280;1639;42.804;23.342;2023-01-28T07:53:40;74078.94;;;-148.52;100.00
3254;BME280;1639;42.804;23.342;2023-01-28T07:56:05;74076.84;;;-148.52;100.00
3254;BME280;1639;42.804;23.342;2023-01-28T07:58:31;74076.84;;;-148.52;100.00
3254;BME280;1639;42.804;23.342;2023-01-28T08:01:00;74076.84;;;-148.52;100.00
3254;BME280;1639;42.804;23.342;2023-01-28T08:03:26;74068.59;;;-148.52;100.00
3254;BME280;1639;42.804;23.342;2023-01-28T08:05:53;74085.13;;;-148.52;100.00
3254;BME280;1639;42.804;23.342;2023-01-28T08:08:20;74085.13;;;-148.52;100.00
3254;BME280;1639;42.804;23.342;2023-01-28T08:10:47;74081.00;;;-148.52;100.00
3254;BME280;1639;42.804;23.342;2023-01-28T08:13:14;74078.94;;;-148.52;100.00
3254;BME280;1639;42.804;23.342;2023-01-28T08:15:40;74047.88;;;-148.52;100.00
3254;BME280;1639;42.804;23.342;2023-01-28T08:18:07;74047.88;;;-148.52;100.00
3254;BME280;1639;42.804;23.342;2023-01-28T08:20:33;74060.31;;;-148.52;100.00
3254;BME280;1639;42.804;23.342;2023-01-28T08:25:30;74060.31;;;-148.52;100.00
3254;BME280;1639;42.804;23.342;2023-01-28T08:27:57;74058.22;;;-148.52;100.00
3254;BME280;1639;42.804;23.342;2023-01-28T08:30:22;74066.50;;;-148.52;100.00
3254;BME280;1639;42.804;23.342;2023-01-28T08:32:47;74054.09;;;-148.52;100.00
3254;BME280;1639;42.804;23.342;2023-01-28T08:35:13;74043.75;;;-148.52;100.00
3254;BME280;1639;42.804;23.342;2023-01-28T08:37:38;74049.97;;;-148.52;100.00
3254;BME280;1639;42.804;23.342;2023-01-28T08:40:04;74049.97;;;-148.52;100.00
3254;BME280;1639;42.804;23.342;2023-01-28T08:42:30;74047.88;;;-148.52;100.00
3254;BME280;1639;42.804;23.342;2023-01-28T08:44:55;74058.22;;;-148.52;100.00
3254;BME280;1639;42.804;23.342;2023-01-28T08:47:20;74056.16;;;-148.52;100.00
3254;BME280;1639;42.804;23.342;2023-01-28T08:49:46;74058.22;;;-148.52;100.00
3254;BME280;1639;42.804;23.342;2023-01-28T08:52:11;74056.16;;;-148.52;100.00
3254;BME280;1639;42.804;23.342;2023-01-28T08:54:36;74052.03;;;-148.52;100.00
3254;BME280;1639;42.804;23.342;2023-01-28T08:57:02;74062.38;;;-148.52;100.00
3254;BME280;1639;42.804;23.342;2023-01-28T08:59:28;74058.22;;;-148.52;100.00
3254;BME280;1639;42.804;23.342;2023-01-28T09:01:53;74062.38;;;-148.52;100.00
3254;BME280;1639;42.804;23.342;2023-01-28T09:04:19;74058.22;;;-148.52;100.00
3254;BME280;1639;42.804;23.342;2023-01-28T09:06:44;74056.16;;;-148.52;100.00
3254;BME280;1639;42.804;23.342;2023-01-28T09:09:09;74060.31;;;-148.52;100.00
3254;BME280;1639;42.804;23.342;2023-01-28T09:11:35;74060.31;;;-148.52;100.00
3254;BME280;1639;42.804;23.342;2023-01-28T09:14:00;74054.09;;;-148.52;100.00
3254;BME280;1639;42.804;23.342;2023-01-28T09:16:26;74045.81;;;-148.52;100.00
3254;BME280;1639;42.804;23.342;2023-01-28T09:18:51;74045.81;;;-148.52;100.00
3254;BME280;1639;42.804;23.342;2023-01-28T09:21:18;74035.47;;;-148.52;100.00
3254;BME280;1639;42.804;23.342;2023-01-28T09:23:44;74035.47;;;-148.52;100.00
3254;BME280;1639;42.804;23.342;2023-01-28T09:26:10;74027.22;;;-148.52;100.00
3254;BME280;1639;42.804;23.342;2023-01-28T09:28:35;74018.94;;;-148.52;100.00
3254;BME280;1639;42.804;23.342;2023-01-28T09:31:10;74023.06;;;-148.52;100.00
3254;BME280;1639;42.804;23.342;2023-01-28T09:33:37;74018.94;;;-148.52;100.00
3254;BME280;1639;42.804;23.342;2023-01-28T09:36:04;74010.66;;;-148.52;100.00
3254;BME280;1639;42.804;23.342;2023-01-28T09:38:31;73998.25;;;-148.52;100.00
3254;BME280;1639;42.804;23.342;2023-01-28T09:40:57;74008.59;;;-148.52;100.00
3254;BME280;1639;42.804;23.342;2023-01-28T09:46:33;74002.38;;;-148.52;100.00
3254;BME280;1639;42.804;23.342;2023-01-28T09:49:02;73996.16;;;-148.52;100.00
3254;BME280;1639;42.804;23.342;2023-01-28T09:51:39;73996.16;;;-148.52;100.00
3254;BME280;1639;42.804;23.342;2023-01-28T09:56:44;73979.63;;;-148.52;100.00
3254;BME280;1639;42.804;23.342;2023-01-28T09:59:18;73994.09;;;-148.52;100.00
3254;BME280;1639;42.804;23.342;2023-01-28T10:01:52;73977.56;;;-148.52;100.00
3254;BME280;1639;42.804;23.342;2023-01-28T10:07:04;73981.69;;;-148.52;100.00
3254;BME280;1639;42.804;23.342;2023-01-28T10:09:55;73969.28;;;-148.52;100.00
3254;BME280;1639;42.804;23.342;2023-01-28T10:12:46;73971.34;;;-148.52;100.00
3254;BME280;1639;42.804;23.342;2023-01-28T10:17:44;73981.69;;;-148.52;100.00
3254;BME280;1639;42.804;23.342;2023-01-28T10:22:52;73985.81;;;-148.52;100.00
3254;BME280;1639;42.804;23.342;2023-01-28T10:25:23;74004.44;;;-148.52;100.00
3254;BME280;1639;42.804;23.342;2023-01-28T10:27:50;73992.03;;;-148.52;100.00
3254;BME280;1639;42.804;23.342;2023-01-28T10:30:24;73994.09;;;-148.52;100.00
3254;BME280;1639;42.804;23.342;2023-01-28T10:32:55;74000.31;;;-148.52;100.00
3254;BME280;1639;42.804;23.342;2023-01-28T10:35:24;74006.53;;;-148.52;100.00
3254;BME280;1639;42.804;23.342;2023-01-28T10:37:52;73994.09;;;-148.52;100.00
3254;BME280;1639;42.804;23.342;2023-01-28T10:40:20;73975.47;;;-148.52;100.00
3254;BME280;1639;42.804;23.342;2023-01-28T10:42:45;73954.81;;;-148.52;100.00
3254;BME280;1639;42.804;23.342;2023-01-28T10:45:17;73956.88;;;-148.52;100.00
3254;BME280;1639;42.804;23.342;2023-01-28T10:47:50;73944.47;;;-148.52;100.00
3254;BME280;1639;42.804;23.342;2023-01-28T10:50:21;73938.25;;;-148.52;100.00
3254;BME280;1639;42.804;23.342;2023-01-28T10:53:00;73923.78;;;-148.52;100.00
3254;BME280;1639;42.804;23.342;2023-01-28T10:55:28;73923.78;;;-148.52;100.00
3254;BME280;1639;42.804;23.342;2023-01-28T10:57:55;73909.28;;;-148.52;100.00
3254;BME280;1639;42.804;23.342;2023-01-28T11:00:24;73907.22;;;-148.52;100.00
3254;BME280;1639;42.804;23.342;2023-01-28T11:02:50;73911.34;;;-148.52;100.00
3254;BME280;1639;42.804;23.342;2023-01-28T11:05:24;73913.44;;;-148.52;100.00
3254;BME280;1639;42.804;23.342;2023-01-28T11:08:23;73911.34;;;-148.52;100.00
3254;BME280;1639;42.804;23.342;2023-01-28T11:10:48;73907.22;;;-148.52;100.00
3254;BME280;1639;42.804;23.342;2023-01-28T11:13:18;73894.81;;;-148.52;100.00
3254;BME280;1639;42.804;23.342;2023-01-28T11:15:53;73890.66;;;-148.52;100.00
3254;BME280;1639;42.804;23.342;2023-01-28T11:18:24;73880.31;;;-148.52;100.00
3254;BME280;1639;42.804;23.342;2023-01-28T11:20:56;73878.25;;;-148.52;100.00
3254;BME280;1639;42.804;23.342;2023-01-28T11:23:31;73884.47;;;-148.52;100.00
3254;BME280;1639;42.804;23.342;2023-01-28T11:26:04;73878.25;;;-148.52;100.00
3254;BME280;1639;42.804;23.342;2023-01-28T11:28:30;73865.84;;;-148.52;100.00
3254;BME280;1639;42.804;23.342;2023-01-28T11:30:57;73865.84;;;-148.52;100.00
3254;BME280;1639;42.804;23.342;2023-01-28T11:33:45;73857.56;;;-148.52;100.00
3254;BME280;1639;42.804;23.342;2023-01-28T11:36:15;73865.84;;;-148.52;100.00
3254;BME280;1639;42.804;23.342;2023-01-28T11:41:37;73861.72;;;-148.52;100.00
3254;BME280;1639;42.804;23.342;2023-01-28T11:44:15;73867.91;;;-148.52;100.00
3254;BME280;1639;42.804;23.342;2023-01-28T11:57:53;73876.19;;;-148.52;100.00
3254;BME280;1639;42.804;23.342;2023-01-28T12:00:27;73872.06;;;-148.52;100.00
3254;BME280;1639;42.804;23.342;2023-01-28T12:05:51;73851.38;;;-148.52;90.85
3254;BME280;1639;42.804;23.342;2023-01-28T12:08:25;73845.16;;;-148.52;91.89
3254;BME280;1639;42.804;23.342;2023-01-28T12:19:24;73841.03;;;-148.52;81.33
3254;BME280;1639;42.804;23.342;2023-01-28T12:31:04;73830.69;;;-148.52;80.12
3254;BME280;1639;42.804;23.342;2023-01-28T12:41:47;73845.16;;;-148.52;79.93
3254;BME280;1639;42.804;23.342;2023-01-28T12:44:36;73845.16;;;-148.52;78.42
3254;BME280;1639;42.804;23.342;2023-01-28T12:47:10;73836.88;;;-148.52;83.77
3254;BME280;1639;42.804;23.342;2023-01-28T12:49:43;73832.75;;;-148.52;81.53
3254;BME280;1639;42.804;23.342;2023-01-28T12:52:23;73836.88;;;-148.52;79.62
3254;BME280;1639;42.804;23.342;2023-01-28T12:55:11;73830.69;;;-148.52;80.07
3254;BME280;1639;42.804;23.342;2023-01-28T12:57:39;73830.69;;;-148.52;79.63
3254;BME280;1639;42.804;23.342;2023-01-28T13:05:51;73857.56;;;-148.52;77.43
3254;BME280;1639;42.804;23.342;2023-01-28T13:10:44;73865.84;;;-148.52;79.44
3254;BME280;1639;42.804;23.342;2023-01-28T13:13:37;73861.72;;;-148.52;78.95
3254;BME280;1639;42.804;23.342;2023-01-28T13:16:06;73880.31;;;-148.52;78.35
3254;BME280;1639;42.804;23.342;2023-01-28T13:21:03;73874.13;;;-148.52;79.44
3254;BME280;1639;42.804;23.342;2023-01-28T13:25:56;73886.53;;;-148.52;78.91
3254;BME280;1639;42.804;23.342;2023-01-28T13:28:32;73874.13;;;-148.52;79.76
3254;BME280;1639;42.804;23.342;2023-01-28T13:31:07;73874.13;;;-148.52;79.22
3254;BME280;1639;42.804;23.342;2023-01-28T13:33:38;73898.94;;;-148.52;79.12
3254;BME280;1639;42.804;23.342;2023-01-28T13:36:30;73911.34;;;-148.52;79.67
3254;BME280;1639;42.804;23.342;2023-01-28T13:39:18;73923.78;;;-148.52;79.17
3254;BME280;1639;42.804;23.342;2023-01-28T13:41:47;73925.84;;;-148.52;80.60
3254;BME280;1639;42.804;23.342;2023-01-28T13:44:33;73919.63;;;-148.52;80.70
3254;BME280;1639;42.804;23.342;2023-01-28T13:55:15;73929.97;;;-148.52;80.85
3254;BME280;1639;42.804;23.342;2023-01-28T14:18:59;74006.53;;;-148.52;82.25
3254;BME280;1639;42.804;23.342;2023-01-28T14:21:27;74002.38;;;-148.52;82.93
3254;BME280;1639;42.804;23.342;2023-01-28T14:23:54;74012.72;;;-148.52;83.45
3254;BME280;1639;42.804;23.342;2023-01-28T14:26:41;74027.22;;;-148.52;82.24
3254;BME280;1639;42.804;23.342;2023-01-28T14:32:13;74047.88;;;-148.52;83.07
3254;BME280;1639;42.804;23.342;2023-01-28T14:34:40;74056.16;;;-148.52;84.24
3254;BME280;1639;42.804;23.342;2023-01-28T14:37:09;74047.88;;;-148.52;86.63
3254;BME280;1639;42.804;23.342;2023-01-28T14:39:55;74058.22;;;-148.52;87.46
3254;BME280;1639;42.804;23.342;2023-01-28T14:42:35;74064.44;;;-148.52;88.92
3254;BME280;1639;42.804;23.342;2023-01-28T14:47:57;74089.28;;;-148.52;90.87
3254;BME280;1639;42.804;23.342;2023-01-28T14:54:04;74105.81;;;-148.52;93.12
3254;BME280;1639;42.804;23.342;2023-01-28T15:01:44;74130.66;;;-148.52;97.01
3254;BME280;1639;42.804;23.342;2023-01-28T15:06:48;74145.13;;;-148.52;97.73
3254;BME280;1639;42.804;23.342;2023-01-28T15:09:13;74147.19;;;-148.52;98.98